Terminal Aerodrome Forecast
Issued by NWS

Home | Current Version | Previous Version | Text Only | Print | Product List | Glossary On
Versions: 1 2 3 4 5 6 7 8 9 10 11 12 13 14 15
000
FTUS43 KOAX 231300 AAA
TAFCDR
TAF AMD
KCDR 231354Z 2314/2412 VRB04KT P6SM BKN015 OVC110
     FM231600 25011KT P6SM SCT025 OVC060
     FM231900 25014G21KT P6SM SCT150=

USA.gov is the U.S. government's official web portal to all federal, state and local government web resources and services.